Accueil
METAR-TAF:

METAR-TAF

Aéroports :

Memmingen, Allemagne

latitude: 47-59-33N, longitude: 10-14-37E, altitude: 633 m

Observation

Le bulletin a été fait il y a 36 minutes, à 00:20 UTC
Vent 2 kt de direction variable
Température 12°C
Humidité 94%
Pression 1007 hPa
Visibilité 10 km ou plus

METAR: EDJA 070020Z AUTO VRB02KT 9999 // OVC026/// 12/11 Q1007

Heure: 02:56 (00:56 UTC)

Prévision

Le bulletin a été fait il y a 1 heure et 56 minutes, à 23:00 UTC
Prévision valable du 07 à 00 UTC au 07 à 09 UTC
Vent 3 kt de direction variable
Visibilité 10 km ou plus
Nuages fragmentés à une hauteur de 2000 ft
Temporairement
du 07 à 00 UTC au 07 à 04 UTC
Visibilité: 4000 m
Nuages fragmentés à une hauteur de 1200 ft
pluie
Evoluant progressivement
du 07 à 04 UTC au 07 à 06 UTC
Vent 5 kt de ouest
Nuages fragmentés à une hauteur de 800 ft

TAF: EDJA 062300Z 0700/0709 VRB03KT 9999 BKN020 TEMPO 0700/0704 4000 RA BKN012 BECMG 0704/0706 28005KT BKN008

Observations et prévisions météorologiques de plus de 4000 aéroports (messages METAR et TAF).

Les stations disponibles sont représentées par des disques jaunes et rouges sur la carte.

Passer la souris dessus pour voir le nom de la station.

Cliquer dessus pour voir les observations et prévisions météorologiques.

Pour changer de carte: cliquez sur les boutons verts avec une croix noire pour zoomer, sur le bouton vert avec un tiret pour effectuer un zoom arrière, ou sur les flèches vertes pour les cartes adjacentes.


METAR-TAF: